BAW36Y EGPH-EGLL
Flight info
| Callsign | BAW36Y |
|---|---|
| Flight time | 0h 56m |
| Altitude | 31000 |
| Route | GOSAM P600 FENIK L612 NAVSO DCT AKOMU DCT VAMEB DCT NUGRA |
| Aircraft | B77W/H-SDE1E2E3FGHIJ2J3J4J5M1RWXY/LB1D1 |
Departure
| Time | 2026-04-25 18:27 |
|---|---|
| Airport | Edinburgh Airport (EGPH) |
Arrival
| Time | 2026-04-25 19:23 |
|---|---|
| Airport | London Heathrow Airport (EGLL) |
| Time | Latitude | Longitude | Altitude | Speed | Heading |
|---|---|---|---|---|---|
| 2026-04-25 17:37 | 55.95024 | -3.36052 | 108 ft | 0 kts | 249° |
| 2026-04-25 18:16 | 55.95029 | -3.36030 | 108 ft | 1 kts | 249° |
| 2026-04-25 18:17 | 55.95033 | -3.36014 | 108 ft | 1 kts | 249° |
| 2026-04-25 18:17 | 55.95036 | -3.35998 | 107 ft | 1 kts | 249° |
| 2026-04-25 18:17 | 55.95040 | -3.35982 | 108 ft | 1 kts | 249° |
| 2026-04-25 18:17 | 55.95043 | -3.35966 | 107 ft | 1 kts | 249° |
| 2026-04-25 18:18 | 55.95047 | -3.35950 | 107 ft | 1 kts | 249° |
| 2026-04-25 18:18 | 55.95050 | -3.35934 | 107 ft | 1 kts | 250° |
| 2026-04-25 18:18 | 55.95053 | -3.35917 | 108 ft | 1 kts | 249° |
| 2026-04-25 18:18 | 55.95057 | -3.35901 | 108 ft | 2 kts | 257° |
| 2026-04-25 18:19 | 55.95059 | -3.35882 | 107 ft | 1 kts | 281° |
| 2026-04-25 18:19 | 55.95057 | -3.35870 | 107 ft | 1 kts | 296° |
| 2026-04-25 18:20 | 55.95061 | -3.35885 | 107 ft | 5 kts | 295° |
| 2026-04-25 18:21 | 55.95081 | -3.35952 | 107 ft | 7 kts | 299° |
| 2026-04-25 18:21 | 55.95101 | -3.36038 | 109 ft | 8 kts | 289° |
| 2026-04-25 18:21 | 55.95123 | -3.36150 | 109 ft | 10 kts | 289° |
| 2026-04-25 18:21 | 55.95129 | -3.36279 | 109 ft | 11 kts | 251° |
| 2026-04-25 18:22 | 55.95095 | -3.36398 | 109 ft | 11 kts | 238° |
| 2026-04-25 18:22 | 55.95082 | -3.36435 | 110 ft | 11 kts | 238° |
| 2026-04-25 18:22 | 55.94959 | -3.36799 | 109 ft | 23 kts | 239° |
| 2026-04-25 18:22 | 55.94870 | -3.37055 | 110 ft | 24 kts | 239° |
| 2026-04-25 18:23 | 55.94783 | -3.37315 | 109 ft | 24 kts | 239° |
| 2026-04-25 18:23 | 55.94695 | -3.37575 | 113 ft | 24 kts | 238° |
| 2026-04-25 18:23 | 55.94607 | -3.37835 | 113 ft | 25 kts | 238° |
| 2026-04-25 18:23 | 55.94517 | -3.38098 | 111 ft | 25 kts | 240° |
| 2026-04-25 18:24 | 55.94427 | -3.38363 | 116 ft | 25 kts | 238° |
| 2026-04-25 18:24 | 55.94350 | -3.38594 | 118 ft | 18 kts | 239° |
| 2026-04-25 18:24 | 55.94302 | -3.38737 | 119 ft | 13 kts | 239° |
| 2026-04-25 18:24 | 55.94285 | -3.38849 | 122 ft | 4 kts | 298° |
| 2026-04-25 18:25 | 55.94305 | -3.38883 | 120 ft | 4 kts | 326° |
| 2026-04-25 18:25 | 55.94310 | -3.38889 | 122 ft | 1 kts | 328° |
| 2026-04-25 18:25 | 55.94325 | -3.38906 | 122 ft | 4 kts | 328° |
| 2026-04-25 18:25 | 55.94367 | -3.38950 | 119 ft | 8 kts | 330° |
| 2026-04-25 18:26 | 55.94411 | -3.38972 | 118 ft | 6 kts | 25° |
| 2026-04-25 18:26 | 55.94435 | -3.38908 | 121 ft | 6 kts | 59° |
| 2026-04-25 18:26 | 55.94546 | -3.38580 | 115 ft | 71 kts | 59° |
| 2026-04-25 18:26 | 55.94941 | -3.37418 | 109 ft | 144 kts | 59° |
| 2026-04-25 18:27 | 55.95563 | -3.35730 | 428 ft | 172 kts | 53° |
| 2026-04-25 18:27 | 55.96221 | -3.34055 | 1423 ft | 162 kts | 55° |
| 2026-04-25 18:27 | 55.97122 | -3.32739 | 2070 ft | 178 kts | 40° |
| 2026-04-25 18:27 | 55.98152 | -3.31201 | 2337 ft | 209 kts | 46° |
| 2026-04-25 18:28 | 55.99286 | -3.29303 | 2678 ft | 235 kts | 44° |
| 2026-04-25 18:28 | 56.00758 | -3.27929 | 3236 ft | 250 kts | 8° |
| 2026-04-25 18:28 | 56.02435 | -3.28504 | 4112 ft | 247 kts | 327° |
| 2026-04-25 18:29 | 56.03621 | -3.33696 | 5768 ft | 241 kts | 257° |
| 2026-04-25 18:29 | 56.03060 | -3.36505 | 6016 ft | 246 kts | 252° |
| 2026-04-25 18:30 | 56.01546 | -3.45564 | 6636 ft | 261 kts | 256° |
| 2026-04-25 18:30 | 56.01073 | -3.48756 | 7465 ft | 270 kts | 256° |
| 2026-04-25 18:30 | 56.00773 | -3.50829 | 8153 ft | 266 kts | 256° |
| 2026-04-25 18:31 | 56.00505 | -3.52692 | 8714 ft | 268 kts | 255° |
| 2026-04-25 18:32 | 56.00045 | -3.55904 | 9602 ft | 273 kts | 255° |
| 2026-04-25 18:32 | 55.99579 | -3.59170 | 10588 ft | 272 kts | 255° |
| 2026-04-25 18:32 | 55.99097 | -3.62527 | 11158 ft | 290 kts | 255° |
| 2026-04-25 18:32 | 55.98570 | -3.66192 | 11399 ft | 321 kts | 255° |
| 2026-04-25 18:33 | 55.97990 | -3.70232 | 11632 ft | 351 kts | 255° |
| 2026-04-25 18:33 | 55.97364 | -3.74579 | 12216 ft | 368 kts | 255° |
| 2026-04-25 18:33 | 55.96724 | -3.79023 | 13343 ft | 370 kts | 255° |
| 2026-04-25 18:33 | 55.96078 | -3.83502 | 14482 ft | 373 kts | 255° |
| 2026-04-25 18:34 | 55.95425 | -3.88011 | 15501 ft | 379 kts | 255° |
| 2026-04-25 18:34 | 55.94760 | -3.92580 | 16554 ft | 382 kts | 254° |
| 2026-04-25 18:34 | 55.94078 | -3.97171 | 17528 ft | 384 kts | 252° |
| 2026-04-25 18:34 | 55.92914 | -4.01516 | 18206 ft | 394 kts | 235° |
| 2026-04-25 18:35 | 55.91105 | -4.05247 | 18988 ft | 402 kts | 223° |
| 2026-04-25 18:35 | 55.88864 | -4.08269 | 19837 ft | 406 kts | 214° |
| 2026-04-25 18:35 | 55.86487 | -4.11046 | 20669 ft | 411 kts | 214° |
| 2026-04-25 18:35 | 55.84082 | -4.13861 | 21490 ft | 416 kts | 214° |
| 2026-04-25 18:36 | 55.81663 | -4.16750 | 22299 ft | 421 kts | 215° |
| 2026-04-25 18:36 | 55.79222 | -4.19698 | 23087 ft | 426 kts | 216° |
| 2026-04-25 18:36 | 55.76765 | -4.22697 | 23870 ft | 430 kts | 216° |
| 2026-04-25 18:36 | 55.74121 | -4.25185 | 24291 ft | 439 kts | 199° |
| 2026-04-25 18:37 | 55.71078 | -4.26031 | 24856 ft | 449 kts | 181° |
| 2026-04-25 18:37 | 55.67962 | -4.25371 | 25490 ft | 457 kts | 168° |
| 2026-04-25 18:37 | 55.64994 | -4.23273 | 26190 ft | 462 kts | 154° |
| 2026-04-25 18:37 | 55.62209 | -4.20454 | 27011 ft | 462 kts | 152° |
| 2026-04-25 18:38 | 55.59444 | -4.17570 | 27223 ft | 460 kts | 152° |
| 2026-04-25 18:38 | 55.56686 | -4.14741 | 27216 ft | 457 kts | 153° |
| 2026-04-25 18:38 | 55.53916 | -4.11984 | 27218 ft | 457 kts | 153° |
| 2026-04-25 18:38 | 55.51128 | -4.09267 | 27220 ft | 458 kts | 153° |
| 2026-04-25 18:39 | 55.48333 | -4.06562 | 27216 ft | 458 kts | 153° |
| 2026-04-25 18:39 | 55.45539 | -4.03854 | 27201 ft | 459 kts | 153° |
| 2026-04-25 18:39 | 55.42742 | -4.01140 | 27206 ft | 459 kts | 153° |
| 2026-04-25 18:39 | 55.39941 | -3.98422 | 27210 ft | 460 kts | 153° |
| 2026-04-25 18:40 | 55.37139 | -3.95707 | 27210 ft | 460 kts | 153° |
| 2026-04-25 18:40 | 55.34332 | -3.92990 | 27209 ft | 461 kts | 153° |
| 2026-04-25 18:40 | 55.31525 | -3.90279 | 27211 ft | 461 kts | 153° |
| 2026-04-25 18:40 | 55.28713 | -3.87569 | 27207 ft | 461 kts | 153° |
| 2026-04-25 18:41 | 55.25907 | -3.84867 | 27208 ft | 460 kts | 153° |
| 2026-04-25 18:41 | 55.23096 | -3.82166 | 27211 ft | 460 kts | 153° |
| 2026-04-25 18:41 | 55.20279 | -3.79516 | 27202 ft | 459 kts | 155° |
| 2026-04-25 18:41 | 55.17423 | -3.77007 | 27203 ft | 459 kts | 156° |
| 2026-04-25 18:42 | 55.14550 | -3.74570 | 27211 ft | 459 kts | 156° |
| 2026-04-25 18:42 | 55.12647 | -3.72972 | 27213 ft | 459 kts | 156° |
| 2026-04-25 18:42 | 55.08789 | -3.69728 | 27214 ft | 460 kts | 156° |
| 2026-04-25 18:42 | 55.05914 | -3.67299 | 27210 ft | 460 kts | 156° |
| 2026-04-25 18:43 | 55.03033 | -3.64851 | 27215 ft | 460 kts | 156° |
| 2026-04-25 18:43 | 55.00157 | -3.62400 | 27219 ft | 460 kts | 156° |
| 2026-04-25 18:43 | 54.97283 | -3.59950 | 27221 ft | 460 kts | 156° |
| 2026-04-25 18:43 | 54.94408 | -3.57501 | 27206 ft | 461 kts | 156° |
| 2026-04-25 18:44 | 54.91524 | -3.55048 | 27227 ft | 461 kts | 156° |
| 2026-04-25 18:44 | 54.88650 | -3.52608 | 27223 ft | 461 kts | 156° |
| 2026-04-25 18:44 | 54.85767 | -3.50163 | 27207 ft | 461 kts | 156° |
| 2026-04-25 18:44 | 54.82882 | -3.47723 | 27221 ft | 461 kts | 156° |
| 2026-04-25 18:45 | 54.79973 | -3.45267 | 27279 ft | 472 kts | 156° |
| 2026-04-25 18:45 | 54.76977 | -3.42745 | 27457 ft | 485 kts | 156° |
| 2026-04-25 18:45 | 54.73912 | -3.40167 | 27762 ft | 493 kts | 156° |
| 2026-04-25 18:45 | 54.70816 | -3.37565 | 28186 ft | 497 kts | 156° |
| 2026-04-25 18:46 | 54.67699 | -3.34948 | 28685 ft | 498 kts | 156° |
| 2026-04-25 18:46 | 54.64583 | -3.32339 | 29341 ft | 496 kts | 156° |
| 2026-04-25 18:46 | 54.61436 | -3.29979 | 30097 ft | 491 kts | 160° |
| 2026-04-25 18:46 | 54.58252 | -3.27873 | 30756 ft | 488 kts | 161° |
| 2026-04-25 18:47 | 54.55074 | -3.25851 | 31341 ft | 486 kts | 161° |
| 2026-04-25 18:47 | 54.51909 | -3.23857 | 31899 ft | 484 kts | 161° |
| 2026-04-25 18:47 | 54.48749 | -3.21855 | 32464 ft | 483 kts | 161° |
| 2026-04-25 18:47 | 54.45611 | -3.19849 | 33028 ft | 481 kts | 161° |
| 2026-04-25 18:48 | 54.42483 | -3.17835 | 33536 ft | 479 kts | 161° |
| 2026-04-25 18:48 | 54.39364 | -3.15819 | 34055 ft | 478 kts | 160° |
| 2026-04-25 18:48 | 54.36260 | -3.13808 | 34528 ft | 477 kts | 160° |
| 2026-04-25 18:48 | 54.33160 | -3.11801 | 34936 ft | 476 kts | 160° |
| 2026-04-25 18:49 | 54.30062 | -3.09797 | 35313 ft | 476 kts | 160° |
| 2026-04-25 18:49 | 54.26963 | -3.07797 | 35655 ft | 476 kts | 161° |
| 2026-04-25 18:49 | 54.23861 | -3.05799 | 35977 ft | 477 kts | 161° |
| 2026-04-25 18:49 | 54.20752 | -3.03800 | 36312 ft | 477 kts | 161° |
| 2026-04-25 18:50 | 54.17645 | -3.01806 | 36619 ft | 478 kts | 161° |
| 2026-04-25 18:50 | 54.14537 | -2.99815 | 36958 ft | 477 kts | 161° |
| 2026-04-25 18:50 | 54.11464 | -2.97849 | 37165 ft | 479 kts | 161° |
| 2026-04-25 18:50 | 54.08337 | -2.95853 | 37208 ft | 480 kts | 161° |
| 2026-04-25 18:51 | 54.03113 | -2.92523 | 37206 ft | 477 kts | 161° |
| 2026-04-25 18:51 | 53.95914 | -2.87950 | 37207 ft | 474 kts | 161° |
| 2026-04-25 18:52 | 53.89741 | -2.84042 | 37211 ft | 474 kts | 161° |
| 2026-04-25 18:52 | 53.83562 | -2.80144 | 37222 ft | 475 kts | 161° |
| 2026-04-25 18:53 | 53.77356 | -2.76241 | 37219 ft | 476 kts | 161° |
| 2026-04-25 18:53 | 53.71131 | -2.72338 | 37214 ft | 478 kts | 161° |
| 2026-04-25 18:54 | 53.61750 | -2.66478 | 37218 ft | 480 kts | 161° |
| 2026-04-25 18:55 | 53.55475 | -2.62574 | 37214 ft | 481 kts | 161° |
| 2026-04-25 18:55 | 53.49191 | -2.58677 | 37216 ft | 482 kts | 161° |
| 2026-04-25 18:56 | 53.42903 | -2.54786 | 37214 ft | 481 kts | 160° |
| 2026-04-25 18:56 | 53.36888 | -2.49853 | 37225 ft | 482 kts | 152° |
| 2026-04-25 18:57 | 53.31039 | -2.44355 | 37211 ft | 482 kts | 152° |
| 2026-04-25 18:57 | 53.25184 | -2.38910 | 37212 ft | 481 kts | 152° |
| 2026-04-25 18:58 | 53.19316 | -2.33527 | 37205 ft | 481 kts | 153° |
| 2026-04-25 18:58 | 53.10498 | -2.25503 | 37216 ft | 482 kts | 153° |
| 2026-04-25 18:59 | 52.98711 | -2.14829 | 37204 ft | 483 kts | 153° |
| 2026-04-25 19:00 | 52.92851 | -2.09543 | 36913 ft | 474 kts | 153° |
| 2026-04-25 19:00 | 52.89966 | -2.06947 | 36375 ft | 470 kts | 153° |
| 2026-04-25 19:01 | 52.84219 | -2.01790 | 35058 ft | 470 kts | 153° |
| 2026-04-25 19:01 | 52.81386 | -1.99255 | 34573 ft | 466 kts | 153° |
| 2026-04-25 19:01 | 52.78553 | -1.96721 | 34154 ft | 461 kts | 153° |
| 2026-04-25 19:01 | 52.75743 | -1.94212 | 33387 ft | 461 kts | 153° |
| 2026-04-25 19:02 | 52.69908 | -1.89021 | 30702 ft | 490 kts | 154° |
| 2026-04-25 19:02 | 52.66905 | -1.86354 | 29870 ft | 490 kts | 154° |
| 2026-04-25 19:02 | 52.63920 | -1.83703 | 29182 ft | 485 kts | 153° |
| 2026-04-25 19:03 | 52.59979 | -1.80208 | 28353 ft | 477 kts | 153° |
| 2026-04-25 19:03 | 52.55162 | -1.75948 | 27341 ft | 469 kts | 153° |
| 2026-04-25 19:03 | 52.52299 | -1.73424 | 26737 ft | 465 kts | 153° |
| 2026-04-25 19:04 | 52.46651 | -1.68454 | 25538 ft | 457 kts | 153° |
| 2026-04-25 19:04 | 52.43862 | -1.66006 | 24981 ft | 454 kts | 153° |
| 2026-04-25 19:05 | 52.38330 | -1.61159 | 23825 ft | 448 kts | 153° |
| 2026-04-25 19:05 | 52.32865 | -1.56384 | 22533 ft | 442 kts | 153° |
| 2026-04-25 19:05 | 52.30168 | -1.54033 | 21978 ft | 437 kts | 153° |
| 2026-04-25 19:06 | 52.27501 | -1.51709 | 21413 ft | 433 kts | 153° |
| 2026-04-25 19:06 | 52.22234 | -1.47127 | 20452 ft | 425 kts | 152° |
| 2026-04-25 19:06 | 52.19724 | -1.44481 | 20311 ft | 432 kts | 143° |
| 2026-04-25 19:07 | 52.15218 | -1.38085 | 20282 ft | 428 kts | 138° |
| 2026-04-25 19:07 | 52.13032 | -1.34818 | 20242 ft | 426 kts | 139° |
| 2026-04-25 19:08 | 52.08598 | -1.28425 | 20236 ft | 426 kts | 140° |
| 2026-04-25 19:08 | 52.06350 | -1.25280 | 20226 ft | 426 kts | 140° |
| 2026-04-25 19:09 | 51.99652 | -1.16012 | 19012 ft | 417 kts | 140° |
| 2026-04-25 19:09 | 51.98909 | -1.14985 | 18826 ft | 416 kts | 140° |
| 2026-04-25 19:09 | 51.93129 | -1.07014 | 17545 ft | 402 kts | 140° |
| 2026-04-25 19:10 | 51.91008 | -1.04094 | 17037 ft | 398 kts | 140° |
| 2026-04-25 19:10 | 51.88909 | -1.01208 | 16516 ft | 395 kts | 140° |
| 2026-04-25 19:10 | 51.86822 | -0.98343 | 15966 ft | 392 kts | 140° |
| 2026-04-25 19:10 | 51.84929 | -0.95243 | 15439 ft | 387 kts | 124° |
| 2026-04-25 19:11 | 51.83716 | -0.91414 | 15279 ft | 385 kts | 114° |
| 2026-04-25 19:11 | 51.82588 | -0.87458 | 15184 ft | 383 kts | 115° |
| 2026-04-25 19:11 | 51.81459 | -0.83687 | 14679 ft | 363 kts | 116° |
| 2026-04-25 19:11 | 51.80377 | -0.80151 | 14238 ft | 340 kts | 116° |
| 2026-04-25 19:12 | 51.79353 | -0.76823 | 13671 ft | 323 kts | 116° |
| 2026-04-25 19:12 | 51.78373 | -0.73637 | 13001 ft | 312 kts | 116° |
| 2026-04-25 19:12 | 51.77418 | -0.70537 | 12326 ft | 304 kts | 116° |
| 2026-04-25 19:12 | 51.76500 | -0.67551 | 11862 ft | 289 kts | 116° |
| 2026-04-25 19:13 | 51.75629 | -0.64726 | 11397 ft | 276 kts | 116° |
| 2026-04-25 19:13 | 51.74738 | -0.62038 | 10900 ft | 267 kts | 126° |
| 2026-04-25 19:13 | 51.73895 | -0.60631 | 10517 ft | 263 kts | 146° |
| 2026-04-25 19:13 | 51.72236 | -0.59542 | 9896 ft | 257 kts | 173° |
| 2026-04-25 19:14 | 51.70461 | -0.59325 | 9176 ft | 255 kts | 179° |
| 2026-04-25 19:14 | 51.69267 | -0.59293 | 8739 ft | 254 kts | 180° |
| 2026-04-25 19:14 | 51.66940 | -0.59305 | 8335 ft | 255 kts | 186° |
| 2026-04-25 19:14 | 51.65268 | -0.60166 | 8194 ft | 254 kts | 216° |
| 2026-04-25 19:15 | 51.64016 | -0.62153 | 8199 ft | 254 kts | 232° |
| 2026-04-25 19:15 | 51.62961 | -0.64407 | 8132 ft | 251 kts | 235° |
| 2026-04-25 19:15 | 51.61948 | -0.66668 | 7918 ft | 248 kts | 235° |
| 2026-04-25 19:15 | 51.60949 | -0.68912 | 7619 ft | 246 kts | 235° |
| 2026-04-25 19:16 | 51.59956 | -0.71154 | 7300 ft | 246 kts | 236° |
| 2026-04-25 19:16 | 51.58967 | -0.73393 | 6999 ft | 245 kts | 236° |
| 2026-04-25 19:16 | 51.57984 | -0.75625 | 6708 ft | 244 kts | 236° |
| 2026-04-25 19:16 | 51.57000 | -0.77867 | 6277 ft | 249 kts | 236° |
| 2026-04-25 19:17 | 51.56003 | -0.80142 | 5705 ft | 247 kts | 235° |
| 2026-04-25 19:17 | 51.54900 | -0.82230 | 5080 ft | 247 kts | 217° |
| 2026-04-25 19:17 | 51.53328 | -0.83282 | 4446 ft | 246 kts | 188° |
| 2026-04-25 19:17 | 51.51642 | -0.83504 | 3841 ft | 241 kts | 181° |
| 2026-04-25 19:18 | 51.49981 | -0.83568 | 3280 ft | 234 kts | 175° |
| 2026-04-25 19:18 | 51.48530 | -0.82822 | 3027 ft | 210 kts | 141° |
| 2026-04-25 19:18 | 51.47783 | -0.81038 | 3006 ft | 188 kts | 101° |
| 2026-04-25 19:18 | 51.47682 | -0.78967 | 3005 ft | 186 kts | 91° |
| 2026-04-25 19:19 | 51.47655 | -0.76890 | 2992 ft | 186 kts | 90° |
| 2026-04-25 19:19 | 51.47657 | -0.74834 | 2979 ft | 183 kts | 88° |
| 2026-04-25 19:19 | 51.47665 | -0.72807 | 2993 ft | 182 kts | 88° |
| 2026-04-25 19:19 | 51.47670 | -0.71445 | 2896 ft | 188 kts | 88° |
| 2026-04-25 19:20 | 51.47679 | -0.68636 | 2549 ft | 187 kts | 88° |
| 2026-04-25 19:20 | 51.47686 | -0.66595 | 2288 ft | 177 kts | 88° |
| 2026-04-25 19:20 | 51.47693 | -0.64711 | 2070 ft | 164 kts | 88° |
| 2026-04-25 19:20 | 51.47700 | -0.62889 | 1864 ft | 163 kts | 88° |
| 2026-04-25 19:21 | 51.47706 | -0.61103 | 1656 ft | 161 kts | 88° |
| 2026-04-25 19:21 | 51.47716 | -0.57511 | 1211 ft | 158 kts | 89° |
| 2026-04-25 19:21 | 51.47721 | -0.55772 | 1002 ft | 154 kts | 89° |
| 2026-04-25 19:22 | 51.47729 | -0.54052 | 785 ft | 154 kts | 89° |
| 2026-04-25 19:22 | 51.47734 | -0.52335 | 581 ft | 154 kts | 89° |
| 2026-04-25 19:22 | 51.47746 | -0.48930 | 166 ft | 152 kts | 88° |
| 2026-04-25 19:23 | 51.47755 | -0.47270 | 94 ft | 141 kts | 89° |
| 2026-04-25 19:23 | 51.47752 | -0.45535 | 92 ft | 24 kts | 112° |